Hlavní strana
METAR-TAF:

METAR-TAF

Letiště :

Letiště Kodaň

Kodaň, Dánsko

zeměpisná šířka: 55-37N, zeměpisná délka: 012-39E, výška: 5 m

Aktuální stav počasí

Zpráva byla vytvořena před 23 minutami, v 08:20 UTC
Jihozápadní vítr 12 kt
Teplota 19°C
Vlhkost vzduchu 78%
Tlak 1013 hPa
Viditelnost 10 km a více
Skoro jasno ve výšce 2000 ft
Oblačno až skoro zataženo ve výšce 10000 ft

METAR: EKCH 200820Z 22012KT 9999 FEW020 BKN100 19/15 Q1013 NOSIG

Čas: 10:43 (08:43 UTC)

Předpověď počasí

Zpráva byla vytvořena před 3 hodinami a 48 minutami, v 04:55 UTC
Předpověď platná od 20 v 06 UTC do 21 v 06 UTC
Jihozápadní vítr 12 kt
Viditelnost 10 km a více
Skoro jasno ve výšce 1200 ft
Oblačno až skoro zataženo ve výšce 2000 ft
Změna
od 20 v 20 UTC do 20 v 22 UTC
Jižní vítr 10 kt
Dočasný
od 21 v 02 UTC do 21 v 06 UTC
Jihojihovýchodní vítr 15 kt s nárazy do 25 kt

TAF: EKCH 200455Z 2006/2106 23012KT 9999 FEW012 BKN020 BECMG 2020/2022 18010KT TEMPO 2102/2106 16015G25KT

Stav a předpovědi počasí z více než 4 000 letišť (zprávy METAR a TAF).

Červené a žluté tečky na mapě představují dostupné meteorologické stanice.

Když kurzor umístíte na tečku, zobrazí se název stanice.

Pak kliknutím zobrazíte stav a předpověď počasí.

Chcete-li změnit mapu, kliknutím na zelené tlačítko se znaménkem +mapu přiblížíte, kliknutím na zelené tlačítko se znaménkem – mapu oddálíte a kliknutím na zelené šipky přejdete na sousední mapy.


METAR-TAF: